sensor_id;sensor_type;location;lat;lon;timestamp;P1;durP1;ratioP1;P2;durP2;ratioP2
7477;SDS011;3780;42.424;25.636;2022-12-04T00:00:54;53.80;;;28.90;;
7477;SDS011;3780;42.424;25.636;2022-12-04T00:03:20;50.47;;;28.05;;
7477;SDS011;3780;42.424;25.636;2022-12-04T00:05:46;54.17;;;27.95;;
7477;SDS011;3780;42.424;25.636;2022-12-04T00:08:11;52.97;;;29.75;;
7477;SDS011;3780;42.424;25.636;2022-12-04T00:10:40;53.92;;;29.27;;
7477;SDS011;3780;42.424;25.636;2022-12-04T00:13:06;53.53;;;29.55;;
7477;SDS011;3780;42.424;25.636;2022-12-04T00:15:31;52.50;;;29.77;;
7477;SDS011;3780;42.424;25.636;2022-12-04T00:17:57;52.17;;;30.70;;
7477;SDS011;3780;42.424;25.636;2022-12-04T00:20:22;50.53;;;28.98;;
7477;SDS011;3780;42.424;25.636;2022-12-04T00:22:47;51.25;;;28.23;;
7477;SDS011;3780;42.424;25.636;2022-12-04T00:25:12;50.88;;;28.48;;
7477;SDS011;3780;42.424;25.636;2022-12-04T00:27:38;44.80;;;27.05;;
7477;SDS011;3780;42.424;25.636;2022-12-04T00:30:03;48.30;;;26.50;;
7477;SDS011;3780;42.424;25.636;2022-12-04T00:32:29;49.92;;;27.30;;
7477;SDS011;3780;42.424;25.636;2022-12-04T00:34:54;48.42;;;27.75;;
7477;SDS011;3780;42.424;25.636;2022-12-04T00:37:19;51.72;;;29.02;;
7477;SDS011;3780;42.424;25.636;2022-12-04T00:39:45;53.13;;;28.70;;
7477;SDS011;3780;42.424;25.636;2022-12-04T00:42:10;49.35;;;28.25;;
7477;SDS011;3780;42.424;25.636;2022-12-04T00:44:35;48.08;;;26.98;;
7477;SDS011;3780;42.424;25.636;2022-12-04T00:47:00;51.05;;;28.77;;
7477;SDS011;3780;42.424;25.636;2022-12-04T00:49:29;49.20;;;28.45;;
7477;SDS011;3780;42.424;25.636;2022-12-04T00:51:54;50.35;;;26.25;;
7477;SDS011;3780;42.424;25.636;2022-12-04T00:54:20;43.33;;;26.38;;
7477;SDS011;3780;42.424;25.636;2022-12-04T00:56:45;46.70;;;26.00;;
7477;SDS011;3780;42.424;25.636;2022-12-04T00:59:10;47.67;;;26.23;;
7477;SDS011;3780;42.424;25.636;2022-12-04T01:01:35;45.05;;;25.83;;
7477;SDS011;3780;42.424;25.636;2022-12-04T01:04:01;42.58;;;25.13;;
7477;SDS011;3780;42.424;25.636;2022-12-04T01:06:28;45.65;;;24.65;;
7477;SDS011;3780;42.424;25.636;2022-12-04T01:08:54;42.33;;;25.25;;
7477;SDS011;3780;42.424;25.636;2022-12-04T01:11:20;43.70;;;23.90;;
7477;SDS011;3780;42.424;25.636;2022-12-04T01:13:45;38.30;;;24.35;;
7477;SDS011;3780;42.424;25.636;2022-12-04T01:16:18;42.50;;;24.25;;
7477;SDS011;3780;42.424;25.636;2022-12-04T01:18:44;44.78;;;25.88;;
7477;SDS011;3780;42.424;25.636;2022-12-04T01:21:10;36.65;;;22.23;;
7477;SDS011;3780;42.424;25.636;2022-12-04T01:23:35;40.03;;;24.50;;
7477;SDS011;3780;42.424;25.636;2022-12-04T01:26:00;38.40;;;23.17;;
7477;SDS011;3780;42.424;25.636;2022-12-04T01:28:26;36.42;;;22.50;;
7477;SDS011;3780;42.424;25.636;2022-12-04T01:31:04;38.13;;;22.20;;
7477;SDS011;3780;42.424;25.636;2022-12-04T01:33:30;33.70;;;21.25;;
7477;SDS011;3780;42.424;25.636;2022-12-04T01:35:57;39.53;;;22.10;;
7477;SDS011;3780;42.424;25.636;2022-12-04T01:38:23;36.28;;;21.45;;
7477;SDS011;3780;42.424;25.636;2022-12-04T01:40:49;34.97;;;22.58;;
7477;SDS011;3780;42.424;25.636;2022-12-04T01:43:15;37.47;;;21.33;;
7477;SDS011;3780;42.424;25.636;2022-12-04T01:45:51;34.88;;;20.80;;
7477;SDS011;3780;42.424;25.636;2022-12-04T01:48:18;33.97;;;21.08;;
7477;SDS011;3780;42.424;25.636;2022-12-04T01:50:45;34.83;;;21.48;;
7477;SDS011;3780;42.424;25.636;2022-12-04T01:53:11;36.13;;;21.88;;
7477;SDS011;3780;42.424;25.636;2022-12-04T01:55:37;37.08;;;21.23;;
7477;SDS011;3780;42.424;25.636;2022-12-04T01:58:03;36.28;;;21.15;;
7477;SDS011;3780;42.424;25.636;2022-12-04T02:00:28;36.97;;;21.58;;
7477;SDS011;3780;42.424;25.636;2022-12-04T02:02:55;34.70;;;20.48;;
7477;SDS011;3780;42.424;25.636;2022-12-04T02:05:21;35.47;;;20.15;;
7477;SDS011;3780;42.424;25.636;2022-12-04T02:07:47;35.13;;;20.65;;
7477;SDS011;3780;42.424;25.636;2022-12-04T02:10:14;35.25;;;20.55;;
7477;SDS011;3780;42.424;25.636;2022-12-04T02:12:46;31.40;;;20.02;;
7477;SDS011;3780;42.424;25.636;2022-12-04T02:25:23;25.60;;;18.40;;
7477;SDS011;3780;42.424;25.636;2022-12-04T02:27:50;28.98;;;19.35;;
7477;SDS011;3780;42.424;25.636;2022-12-04T02:30:17;26.47;;;19.03;;
7477;SDS011;3780;42.424;25.636;2022-12-04T02:32:47;32.47;;;19.25;;
7477;SDS011;3780;42.424;25.636;2022-12-04T02:35:19;26.33;;;16.88;;
7477;SDS011;3780;42.424;25.636;2022-12-04T02:37:46;25.88;;;17.70;;
7477;SDS011;3780;42.424;25.636;2022-12-04T02:42:43;26.48;;;17.85;;
7477;SDS011;3780;42.424;25.636;2022-12-04T02:45:13;24.30;;;17.63;;
7477;SDS011;3780;42.424;25.636;2022-12-04T02:47:40;28.02;;;16.85;;
7477;SDS011;3780;42.424;25.636;2022-12-04T02:50:14;27.25;;;17.50;;
7477;SDS011;3780;42.424;25.636;2022-12-04T02:55:05;25.83;;;16.30;;
7477;SDS011;3780;42.424;25.636;2022-12-04T02:57:32;28.95;;;16.70;;
7477;SDS011;3780;42.424;25.636;2022-12-04T02:59:59;29.23;;;16.85;;
7477;SDS011;3780;42.424;25.636;2022-12-04T03:02:30;28.58;;;17.30;;
7477;SDS011;3780;42.424;25.636;2022-12-04T03:04:57;34.47;;;19.33;;
7477;SDS011;3780;42.424;25.636;2022-12-04T03:07:44;31.73;;;18.35;;
7477;SDS011;3780;42.424;25.636;2022-12-04T03:10:13;33.40;;;18.13;;
7477;SDS011;3780;42.424;25.636;2022-12-04T03:13:23;31.83;;;18.10;;
7477;SDS011;3780;42.424;25.636;2022-12-04T03:15:32;27.92;;;16.65;;
7477;SDS011;3780;42.424;25.636;2022-12-04T03:18:03;26.90;;;15.77;;
7477;SDS011;3780;42.424;25.636;2022-12-04T03:20:31;27.77;;;15.93;;
7477;SDS011;3780;42.424;25.636;2022-12-04T03:22:58;25.75;;;16.05;;
7477;SDS011;3780;42.424;25.636;2022-12-04T03:25:25;24.92;;;15.77;;
7477;SDS011;3780;42.424;25.636;2022-12-04T03:30:18;26.27;;;15.57;;
7477;SDS011;3780;42.424;25.636;2022-12-04T03:38:02;20.90;;;13.90;;
7477;SDS011;3780;42.424;25.636;2022-12-04T03:45:27;19.95;;;13.05;;
7477;SDS011;3780;42.424;25.636;2022-12-04T03:48:00;19.77;;;14.07;;
7477;SDS011;3780;42.424;25.636;2022-12-04T03:55:44;20.08;;;14.00;;
7477;SDS011;3780;42.424;25.636;2022-12-04T03:58:12;20.77;;;14.30;;
7477;SDS011;3780;42.424;25.636;2022-12-04T04:00:40;20.42;;;14.23;;
7477;SDS011;3780;42.424;25.636;2022-12-04T04:03:08;20.70;;;13.88;;
7477;SDS011;3780;42.424;25.636;2022-12-04T04:05:35;18.40;;;13.25;;
7477;SDS011;3780;42.424;25.636;2022-12-04T04:08:03;20.30;;;14.30;;
7477;SDS011;3780;42.424;25.636;2022-12-04T04:10:48;21.90;;;14.57;;
7477;SDS011;3780;42.424;25.636;2022-12-04T04:13:16;21.50;;;14.93;;
7477;SDS011;3780;42.424;25.636;2022-12-04T04:16:00;22.98;;;15.02;;
7477;SDS011;3780;42.424;25.636;2022-12-04T04:18:45;20.27;;;14.10;;
7477;SDS011;3780;42.424;25.636;2022-12-04T04:21:31;19.92;;;14.07;;
7477;SDS011;3780;42.424;25.636;2022-12-04T04:26:53;23.23;;;14.80;;
7477;SDS011;3780;42.424;25.636;2022-12-04T04:29:19;19.00;;;13.15;;
7477;SDS011;3780;42.424;25.636;2022-12-04T04:44:52;17.58;;;12.82;;
7477;SDS011;3780;42.424;25.636;2022-12-04T04:47:20;19.70;;;11.38;;
7477;SDS011;3780;42.424;25.636;2022-12-04T04:49:46;16.73;;;11.60;;
7477;SDS011;3780;42.424;25.636;2022-12-04T04:52:12;16.27;;;10.75;;
7477;SDS011;3780;42.424;25.636;2022-12-04T04:54:38;17.52;;;11.57;;
7477;SDS011;3780;42.424;25.636;2022-12-04T04:57:03;15.60;;;11.82;;
7477;SDS011;3780;42.424;25.636;2022-12-04T04:59:29;17.23;;;11.82;;
7477;SDS011;3780;42.424;25.636;2022-12-04T05:01:54;17.15;;;11.75;;
7477;SDS011;3780;42.424;25.636;2022-12-04T05:04:20;18.25;;;11.13;;
7477;SDS011;3780;42.424;25.636;2022-12-04T05:06:46;18.92;;;12.25;;
7477;SDS011;3780;42.424;25.636;2022-12-04T05:09:12;16.92;;;10.98;;
7477;SDS011;3780;42.424;25.636;2022-12-04T05:11:38;17.23;;;11.63;;
7477;SDS011;3780;42.424;25.636;2022-12-04T05:14:03;16.58;;;11.23;;
7477;SDS011;3780;42.424;25.636;2022-12-04T05:16:30;18.00;;;12.27;;
7477;SDS011;3780;42.424;25.636;2022-12-04T05:18:56;20.83;;;12.35;;
7477;SDS011;3780;42.424;25.636;2022-12-04T05:21:40;18.30;;;11.57;;
7477;SDS011;3780;42.424;25.636;2022-12-04T05:24:05;17.40;;;11.52;;
7477;SDS011;3780;42.424;25.636;2022-12-04T05:26:31;17.42;;;11.77;;
7477;SDS011;3780;42.424;25.636;2022-12-04T05:28:56;16.50;;;11.27;;
7477;SDS011;3780;42.424;25.636;2022-12-04T05:31:21;16.63;;;9.48;;
7477;SDS011;3780;42.424;25.636;2022-12-04T05:33:47;15.15;;;9.98;;
7477;SDS011;3780;42.424;25.636;2022-12-04T05:36:12;13.00;;;9.35;;
7477;SDS011;3780;42.424;25.636;2022-12-04T05:38:37;11.90;;;8.68;;
7477;SDS011;3780;42.424;25.636;2022-12-04T05:41:03;12.10;;;9.27;;
7477;SDS011;3780;42.424;25.636;2022-12-04T05:43:29;11.95;;;8.90;;
7477;SDS011;3780;42.424;25.636;2022-12-04T05:45:54;12.68;;;8.65;;
7477;SDS011;3780;42.424;25.636;2022-12-04T05:48:20;11.55;;;9.13;;
7477;SDS011;3780;42.424;25.636;2022-12-04T05:50:45;14.38;;;9.85;;
7477;SDS011;3780;42.424;25.636;2022-12-04T05:53:10;12.65;;;9.75;;
7477;SDS011;3780;42.424;25.636;2022-12-04T05:55:36;12.48;;;9.15;;
7477;SDS011;3780;42.424;25.636;2022-12-04T05:58:01;14.30;;;9.50;;
7477;SDS011;3780;42.424;25.636;2022-12-04T06:00:27;13.88;;;10.10;;
7477;SDS011;3780;42.424;25.636;2022-12-04T06:02:52;13.18;;;9.80;;
7477;SDS011;3780;42.424;25.636;2022-12-04T06:05:18;13.02;;;9.43;;
7477;SDS011;3780;42.424;25.636;2022-12-04T06:07:43;14.25;;;9.93;;
7477;SDS011;3780;42.424;25.636;2022-12-04T06:10:08;12.30;;;9.63;;
7477;SDS011;3780;42.424;25.636;2022-12-04T06:12:34;12.95;;;9.15;;
7477;SDS011;3780;42.424;25.636;2022-12-04T06:14:59;15.45;;;11.10;;
7477;SDS011;3780;42.424;25.636;2022-12-04T06:17:24;15.38;;;11.13;;
7477;SDS011;3780;42.424;25.636;2022-12-04T06:19:50;16.08;;;11.68;;
7477;SDS011;3780;42.424;25.636;2022-12-04T06:22:17;15.70;;;10.00;;
7477;SDS011;3780;42.424;25.636;2022-12-04T06:24:42;14.10;;;10.40;;
7477;SDS011;3780;42.424;25.636;2022-12-04T06:27:08;14.77;;;10.90;;
7477;SDS011;3780;42.424;25.636;2022-12-04T06:29:33;15.25;;;11.05;;
7477;SDS011;3780;42.424;25.636;2022-12-04T06:31:58;15.90;;;10.85;;
7477;SDS011;3780;42.424;25.636;2022-12-04T06:34:23;14.93;;;10.73;;
7477;SDS011;3780;42.424;25.636;2022-12-04T06:36:49;17.00;;;11.48;;
7477;SDS011;3780;42.424;25.636;2022-12-04T06:39:14;13.82;;;10.60;;
7477;SDS011;3780;42.424;25.636;2022-12-04T06:41:39;16.70;;;11.85;;
7477;SDS011;3780;42.424;25.636;2022-12-04T06:44:05;18.13;;;11.95;;
7477;SDS011;3780;42.424;25.636;2022-12-04T06:46:31;24.70;;;15.65;;
7477;SDS011;3780;42.424;25.636;2022-12-04T06:48:57;30.95;;;19.23;;
7477;SDS011;3780;42.424;25.636;2022-12-04T06:51:25;24.45;;;14.40;;
7477;SDS011;3780;42.424;25.636;2022-12-04T06:53:51;26.73;;;16.50;;
7477;SDS011;3780;42.424;25.636;2022-12-04T06:56:18;22.45;;;13.85;;
7477;SDS011;3780;42.424;25.636;2022-12-04T06:58:45;21.77;;;13.93;;
7477;SDS011;3780;42.424;25.636;2022-12-04T07:01:13;30.95;;;20.98;;
7477;SDS011;3780;42.424;25.636;2022-12-04T07:03:38;26.85;;;18.02;;
7477;SDS011;3780;42.424;25.636;2022-12-04T07:06:10;29.40;;;19.95;;
7477;SDS011;3780;42.424;25.636;2022-12-04T07:08:36;25.77;;;14.80;;
7477;SDS011;3780;42.424;25.636;2022-12-04T07:11:01;18.52;;;12.52;;
7477;SDS011;3780;42.424;25.636;2022-12-04T07:13:26;18.45;;;12.93;;
7477;SDS011;3780;42.424;25.636;2022-12-04T07:15:52;18.15;;;12.82;;
7477;SDS011;3780;42.424;25.636;2022-12-04T07:18:17;19.25;;;12.55;;
7477;SDS011;3780;42.424;25.636;2022-12-04T07:20:42;16.13;;;12.07;;
7477;SDS011;3780;42.424;25.636;2022-12-04T07:23:07;15.75;;;11.80;;
7477;SDS011;3780;42.424;25.636;2022-12-04T07:25:33;16.02;;;11.48;;
7477;SDS011;3780;42.424;25.636;2022-12-04T07:28:02;14.65;;;11.00;;
7477;SDS011;3780;42.424;25.636;2022-12-04T07:30:28;15.20;;;11.60;;
7477;SDS011;3780;42.424;25.636;2022-12-04T07:32:53;15.43;;;10.70;;
7477;SDS011;3780;42.424;25.636;2022-12-04T07:35:18;17.52;;;11.02;;
7477;SDS011;3780;42.424;25.636;2022-12-04T07:37:43;13.00;;;10.43;;
7477;SDS011;3780;42.424;25.636;2022-12-04T07:40:09;12.93;;;10.18;;
7477;SDS011;3780;42.424;25.636;2022-12-04T07:42:34;16.40;;;10.18;;
7477;SDS011;3780;42.424;25.636;2022-12-04T07:45:00;12.88;;;10.10;;
7477;SDS011;3780;42.424;25.636;2022-12-04T07:47:25;17.90;;;10.10;;
7477;SDS011;3780;42.424;25.636;2022-12-04T07:49:50;15.30;;;10.23;;
7477;SDS011;3780;42.424;25.636;2022-12-04T07:52:15;18.92;;;10.10;;
7477;SDS011;3780;42.424;25.636;2022-12-04T07:54:41;13.35;;;9.90;;
7477;SDS011;3780;42.424;25.636;2022-12-04T07:57:06;13.88;;;9.60;;
7477;SDS011;3780;42.424;25.636;2022-12-04T07:59:31;13.70;;;9.55;;
7477;SDS011;3780;42.424;25.636;2022-12-04T08:01:57;16.08;;;8.15;;
7477;SDS011;3780;42.424;25.636;2022-12-04T08:04:22;11.90;;;8.25;;
7477;SDS011;3780;42.424;25.636;2022-12-04T08:06:47;13.63;;;8.65;;
7477;SDS011;3780;42.424;25.636;2022-12-04T08:09:13;13.25;;;8.57;;
7477;SDS011;3780;42.424;25.636;2022-12-04T08:11:38;15.68;;;9.15;;
7477;SDS011;3780;42.424;25.636;2022-12-04T08:14:03;10.75;;;8.68;;
7477;SDS011;3780;42.424;25.636;2022-12-04T08:16:30;13.57;;;7.93;;
7477;SDS011;3780;42.424;25.636;2022-12-04T08:18:55;9.98;;;6.57;;
7477;SDS011;3780;42.424;25.636;2022-12-04T08:21:22;12.82;;;7.03;;
7477;SDS011;3780;42.424;25.636;2022-12-04T08:23:49;10.02;;;6.13;;
7477;SDS011;3780;42.424;25.636;2022-12-04T08:26:16;11.73;;;5.97;;
7477;SDS011;3780;42.424;25.636;2022-12-04T08:28:42;8.45;;;6.13;;
7477;SDS011;3780;42.424;25.636;2022-12-04T08:31:11;9.75;;;7.25;;
7477;SDS011;3780;42.424;25.636;2022-12-04T08:33:37;7.93;;;6.30;;
7477;SDS011;3780;42.424;25.636;2022-12-04T08:36:07;13.70;;;6.72;;
7477;SDS011;3780;42.424;25.636;2022-12-04T08:38:32;8.32;;;6.40;;
7477;SDS011;3780;42.424;25.636;2022-12-04T08:40:59;9.68;;;6.35;;
7477;SDS011;3780;42.424;25.636;2022-12-04T08:43:25;10.05;;;6.63;;
7477;SDS011;3780;42.424;25.636;2022-12-04T08:45:54;10.68;;;6.38;;
7477;SDS011;3780;42.424;25.636;2022-12-04T08:48:19;10.85;;;7.70;;
7477;SDS011;3780;42.424;25.636;2022-12-04T08:50:44;9.73;;;7.38;;
7477;SDS011;3780;42.424;25.636;2022-12-04T08:53:10;14.57;;;8.35;;
7477;SDS011;3780;42.424;25.636;2022-12-04T08:55:35;13.18;;;8.00;;
7477;SDS011;3780;42.424;25.636;2022-12-04T08:58:00;11.57;;;8.05;;
7477;SDS011;3780;42.424;25.636;2022-12-04T09:00:26;10.85;;;8.18;;
7477;SDS011;3780;42.424;25.636;2022-12-04T09:02:51;11.23;;;7.60;;
7477;SDS011;3780;42.424;25.636;2022-12-04T09:05:17;12.30;;;9.00;;
7477;SDS011;3780;42.424;25.636;2022-12-04T09:07:42;12.52;;;8.07;;
7477;SDS011;3780;42.424;25.636;2022-12-04T09:10:07;9.77;;;7.35;;
7477;SDS011;3780;42.424;25.636;2022-12-04T09:12:33;13.65;;;8.05;;
7477;SDS011;3780;42.424;25.636;2022-12-04T09:14:58;11.80;;;8.20;;
7477;SDS011;3780;42.424;25.636;2022-12-04T09:17:23;15.85;;;8.50;;
7477;SDS011;3780;42.424;25.636;2022-12-04T09:19:49;13.23;;;8.20;;
7477;SDS011;3780;42.424;25.636;2022-12-04T09:22:14;13.00;;;8.93;;
7477;SDS011;3780;42.424;25.636;2022-12-04T09:24:39;12.30;;;8.20;;
7477;SDS011;3780;42.424;25.636;2022-12-04T09:27:05;11.98;;;8.13;;
7477;SDS011;3780;42.424;25.636;2022-12-04T09:29:30;12.32;;;7.15;;
7477;SDS011;3780;42.424;25.636;2022-12-04T09:31:56;13.85;;;6.70;;
7477;SDS011;3780;42.424;25.636;2022-12-04T09:34:21;12.57;;;6.70;;
7477;SDS011;3780;42.424;25.636;2022-12-04T09:36:46;9.52;;;5.55;;
7477;SDS011;3780;42.424;25.636;2022-12-04T09:39:12;10.07;;;6.65;;
7477;SDS011;3780;42.424;25.636;2022-12-04T09:46:59;12.82;;;6.57;;
7477;SDS011;3780;42.424;25.636;2022-12-04T09:49:26;28.08;;;17.50;;
7477;SDS011;3780;42.424;25.636;2022-12-04T09:51:53;13.10;;;8.13;;
7477;SDS011;3780;42.424;25.636;2022-12-04T09:54:22;21.80;;;7.28;;
7477;SDS011;3780;42.424;25.636;2022-12-04T09:56:52;12.35;;;7.07;;
7477;SDS011;3780;42.424;25.636;2022-12-04T09:59:19;9.95;;;6.70;;
7477;SDS011;3780;42.424;25.636;2022-12-04T10:02:00;11.68;;;7.68;;
7477;SDS011;3780;42.424;25.636;2022-12-04T10:04:26;11.95;;;6.28;;
7477;SDS011;3780;42.424;25.636;2022-12-04T10:09:45;31.10;;;9.75;;
7477;SDS011;3780;42.424;25.636;2022-12-04T10:24:56;7.25;;;3.92;;
7477;SDS011;3780;42.424;25.636;2022-12-04T10:27:37;13.50;;;4.30;;
7477;SDS011;3780;42.424;25.636;2022-12-04T10:30:20;17.20;;;4.45;;
7477;SDS011;3780;42.424;25.636;2022-12-04T10:32:46;8.60;;;3.87;;
7477;SDS011;3780;42.424;25.636;2022-12-04T10:35:22;8.45;;;3.42;;
7477;SDS011;3780;42.424;25.636;2022-12-04T10:37:50;9.02;;;2.92;;
7477;SDS011;3780;42.424;25.636;2022-12-04T10:40:20;9.80;;;2.88;;
7477;SDS011;3780;42.424;25.636;2022-12-04T10:42:49;21.58;;;10.50;;
7477;SDS011;3780;42.424;25.636;2022-12-04T10:45:17;7.35;;;2.80;;
7477;SDS011;3780;42.424;25.636;2022-12-04T10:47:45;7.95;;;2.85;;
7477;SDS011;3780;42.424;25.636;2022-12-04T10:50:19;6.65;;;3.28;;
7477;SDS011;3780;42.424;25.636;2022-12-04T10:52:46;5.43;;;3.35;;
7477;SDS011;3780;42.424;25.636;2022-12-04T10:55:12;14.02;;;6.97;;
7477;SDS011;3780;42.424;25.636;2022-12-04T10:57:41;17.65;;;5.47;;
7477;SDS011;3780;42.424;25.636;2022-12-04T11:00:24;10.32;;;4.25;;
7477;SDS011;3780;42.424;25.636;2022-12-04T11:02:51;11.90;;;4.93;;
7477;SDS011;3780;42.424;25.636;2022-12-04T11:05:22;18.58;;;6.05;;
7477;SDS011;3780;42.424;25.636;2022-12-04T11:07:48;29.23;;;11.75;;
7477;SDS011;3780;42.424;25.636;2022-12-04T11:12:40;8.75;;;4.00;;
7477;SDS011;3780;42.424;25.636;2022-12-04T11:17:31;11.60;;;4.68;;
7477;SDS011;3780;42.424;25.636;2022-12-04T11:20:00;7.57;;;3.40;;
7477;SDS011;3780;42.424;25.636;2022-12-04T11:22:26;9.60;;;4.22;;
7477;SDS011;3780;42.424;25.636;2022-12-04T11:24:53;10.15;;;4.63;;
7477;SDS011;3780;42.424;25.636;2022-12-04T11:27:24;15.57;;;5.22;;
7477;SDS011;3780;42.424;25.636;2022-12-04T11:29:51;7.00;;;3.95;;
7477;SDS011;3780;42.424;25.636;2022-12-04T11:32:21;13.10;;;4.38;;
7477;SDS011;3780;42.424;25.636;2022-12-04T11:34:48;7.78;;;3.85;;
7477;SDS011;3780;42.424;25.636;2022-12-04T11:37:26;9.18;;;4.30;;
7477;SDS011;3780;42.424;25.636;2022-12-04T11:39:54;9.10;;;6.10;;
7477;SDS011;3780;42.424;25.636;2022-12-04T11:42:23;10.68;;;5.40;;
7477;SDS011;3780;42.424;25.636;2022-12-04T11:47:33;9.13;;;4.80;;
7477;SDS011;3780;42.424;25.636;2022-12-04T11:50:01;9.68;;;5.13;;
7477;SDS011;3780;42.424;25.636;2022-12-04T11:55:12;13.70;;;8.38;;
7477;SDS011;3780;42.424;25.636;2022-12-04T12:00:14;6.43;;;4.57;;
7477;SDS011;3780;42.424;25.636;2022-12-04T12:10:31;17.42;;;9.23;;
7477;SDS011;3780;42.424;25.636;2022-12-04T12:21:25;17.33;;;8.30;;
7477;SDS011;3780;42.424;25.636;2022-12-04T12:26:04;8.55;;;5.60;;
7477;SDS011;3780;42.424;25.636;2022-12-04T12:28:37;9.13;;;5.43;;
7477;SDS011;3780;42.424;25.636;2022-12-04T12:33:35;11.65;;;7.10;;
7477;SDS011;3780;42.424;25.636;2022-12-04T12:36:10;11.65;;;6.18;;
7477;SDS011;3780;42.424;25.636;2022-12-04T12:38:38;12.77;;;6.80;;
7477;SDS011;3780;42.424;25.636;2022-12-04T12:41:15;18.75;;;7.25;;
7477;SDS011;3780;42.424;25.636;2022-12-04T12:43:42;13.95;;;7.22;;
7477;SDS011;3780;42.424;25.636;2022-12-04T12:49:24;16.83;;;7.20;;
7477;SDS011;3780;42.424;25.636;2022-12-04T12:51:34;16.58;;;7.65;;
7477;SDS011;3780;42.424;25.636;2022-12-04T12:54:26;18.67;;;8.03;;
7477;SDS011;3780;42.424;25.636;2022-12-04T12:56:48;12.15;;;7.40;;
7477;SDS011;3780;42.424;25.636;2022-12-04T12:59:19;14.45;;;7.38;;
7477;SDS011;3780;42.424;25.636;2022-12-04T13:01:53;16.00;;;8.10;;
7477;SDS011;3780;42.424;25.636;2022-12-04T13:04:21;20.90;;;8.55;;
7477;SDS011;3780;42.424;25.636;2022-12-04T13:07:02;14.15;;;8.18;;
7477;SDS011;3780;42.424;25.636;2022-12-04T13:09:33;18.77;;;7.65;;
7477;SDS011;3780;42.424;25.636;2022-12-04T13:12:05;15.65;;;8.98;;
7477;SDS011;3780;42.424;25.636;2022-12-04T13:14:33;16.02;;;8.43;;
7477;SDS011;3780;42.424;25.636;2022-12-04T13:17:03;22.10;;;7.40;;
7477;SDS011;3780;42.424;25.636;2022-12-04T13:19:36;12.65;;;6.28;;
7477;SDS011;3780;42.424;25.636;2022-12-04T13:24:36;17.65;;;7.60;;
7477;SDS011;3780;42.424;25.636;2022-12-04T13:35:03;12.90;;;6.60;;
7477;SDS011;3780;42.424;25.636;2022-12-04T13:42:39;11.20;;;5.85;;
7477;SDS011;3780;42.424;25.636;2022-12-04T13:45:06;8.73;;;5.10;;
7477;SDS011;3780;42.424;25.636;2022-12-04T13:47:34;15.05;;;6.03;;
7477;SDS011;3780;42.424;25.636;2022-12-04T13:52:40;12.10;;;7.45;;
7477;SDS011;3780;42.424;25.636;2022-12-04T13:55:21;19.50;;;9.23;;
7477;SDS011;3780;42.424;25.636;2022-12-04T13:57:54;12.77;;;6.88;;
7477;SDS011;3780;42.424;25.636;2022-12-04T14:00:33;12.45;;;5.70;;
7477;SDS011;3780;42.424;25.636;2022-12-04T14:03:05;10.25;;;5.68;;
7477;SDS011;3780;42.424;25.636;2022-12-04T14:05:33;13.02;;;7.03;;
7477;SDS011;3780;42.424;25.636;2022-12-04T14:08:06;59.42;;;38.97;;
7477;SDS011;3780;42.424;25.636;2022-12-04T14:10:36;24.95;;;13.88;;
7477;SDS011;3780;42.424;25.636;2022-12-04T14:15:37;15.07;;;6.63;;
7477;SDS011;3780;42.424;25.636;2022-12-04T14:18:05;16.13;;;6.97;;
7477;SDS011;3780;42.424;25.636;2022-12-04T14:20:41;14.07;;;7.18;;
7477;SDS011;3780;42.424;25.636;2022-12-04T14:25:40;14.73;;;7.00;;
7477;SDS011;3780;42.424;25.636;2022-12-04T14:28:13;13.85;;;7.57;;
7477;SDS011;3780;42.424;25.636;2022-12-04T14:30:39;9.00;;;6.68;;
7477;SDS011;3780;42.424;25.636;2022-12-04T14:33:06;13.48;;;7.93;;
7477;SDS011;3780;42.424;25.636;2022-12-04T14:35:32;16.13;;;6.47;;
7477;SDS011;3780;42.424;25.636;2022-12-04T14:38:01;12.70;;;5.22;;
7477;SDS011;3780;42.424;25.636;2022-12-04T14:40:28;12.45;;;6.70;;
7477;SDS011;3780;42.424;25.636;2022-12-04T14:42:57;11.05;;;5.57;;
7477;SDS011;3780;42.424;25.636;2022-12-04T14:45:28;14.98;;;5.47;;
7477;SDS011;3780;42.424;25.636;2022-12-04T14:48:04;16.92;;;6.43;;
7477;SDS011;3780;42.424;25.636;2022-12-04T14:58:19;11.57;;;4.53;;
7477;SDS011;3780;42.424;25.636;2022-12-04T15:00:56;11.65;;;5.88;;
7477;SDS011;3780;42.424;25.636;2022-12-04T15:03:22;9.52;;;4.55;;
7477;SDS011;3780;42.424;25.636;2022-12-04T15:05:48;9.10;;;4.45;;
7477;SDS011;3780;42.424;25.636;2022-12-04T15:08:13;14.93;;;4.95;;
7477;SDS011;3780;42.424;25.636;2022-12-04T15:10:39;22.30;;;5.40;;
7477;SDS011;3780;42.424;25.636;2022-12-04T15:13:26;7.55;;;4.10;;
7477;SDS011;3780;42.424;25.636;2022-12-04T15:15:53;10.65;;;5.55;;
7477;SDS011;3780;42.424;25.636;2022-12-04T15:18:18;13.15;;;5.68;;
7477;SDS011;3780;42.424;25.636;2022-12-04T15:23:16;14.75;;;7.13;;
7477;SDS011;3780;42.424;25.636;2022-12-04T15:25:43;15.60;;;7.50;;
7477;SDS011;3780;42.424;25.636;2022-12-04T15:28:51;16.27;;;6.35;;
7477;SDS011;3780;42.424;25.636;2022-12-04T15:30:58;12.43;;;6.88;;
7477;SDS011;3780;42.424;25.636;2022-12-04T15:33:30;14.15;;;7.13;;
7477;SDS011;3780;42.424;25.636;2022-12-04T15:36:01;12.98;;;5.43;;
7477;SDS011;3780;42.424;25.636;2022-12-04T15:38:27;9.90;;;5.90;;
7477;SDS011;3780;42.424;25.636;2022-12-04T15:40:53;17.88;;;8.77;;
7477;SDS011;3780;42.424;25.636;2022-12-04T15:43:27;23.25;;;11.38;;
7477;SDS011;3780;42.424;25.636;2022-12-04T15:45:53;18.90;;;10.38;;
7477;SDS011;3780;42.424;25.636;2022-12-04T15:48:22;17.95;;;8.00;;
7477;SDS011;3780;42.424;25.636;2022-12-04T15:50:54;26.90;;;9.98;;
7477;SDS011;3780;42.424;25.636;2022-12-04T15:53:21;11.55;;;5.50;;
7477;SDS011;3780;42.424;25.636;2022-12-04T15:55:49;35.63;;;19.73;;
7477;SDS011;3780;42.424;25.636;2022-12-04T15:58:20;25.90;;;16.77;;
7477;SDS011;3780;42.424;25.636;2022-12-04T16:00:46;18.10;;;8.35;;
7477;SDS011;3780;42.424;25.636;2022-12-04T16:03:24;29.77;;;10.68;;
7477;SDS011;3780;42.424;25.636;2022-12-04T16:06:00;12.82;;;6.93;;
7477;SDS011;3780;42.424;25.636;2022-12-04T16:08:38;15.82;;;7.93;;
7477;SDS011;3780;42.424;25.636;2022-12-04T16:13:33;13.90;;;7.53;;
7477;SDS011;3780;42.424;25.636;2022-12-04T16:15:59;23.05;;;9.27;;
7477;SDS011;3780;42.424;25.636;2022-12-04T16:18:28;20.73;;;9.10;;
7477;SDS011;3780;42.424;25.636;2022-12-04T16:20:53;48.30;;;26.90;;
7477;SDS011;3780;42.424;25.636;2022-12-04T16:23:21;52.25;;;34.00;;
7477;SDS011;3780;42.424;25.636;2022-12-04T16:25:46;27.60;;;13.73;;
7477;SDS011;3780;42.424;25.636;2022-12-04T16:28:11;14.85;;;8.00;;
7477;SDS011;3780;42.424;25.636;2022-12-04T16:30:37;12.85;;;6.60;;
7477;SDS011;3780;42.424;25.636;2022-12-04T16:33:02;20.15;;;8.52;;
7477;SDS011;3780;42.424;25.636;2022-12-04T16:35:27;21.95;;;9.50;;
7477;SDS011;3780;42.424;25.636;2022-12-04T16:37:55;13.25;;;6.22;;
7477;SDS011;3780;42.424;25.636;2022-12-04T16:40:20;11.52;;;6.57;;
7477;SDS011;3780;42.424;25.636;2022-12-04T16:42:45;20.25;;;7.07;;
7477;SDS011;3780;42.424;25.636;2022-12-04T16:45:17;19.17;;;6.65;;
7477;SDS011;3780;42.424;25.636;2022-12-04T16:47:44;18.00;;;6.20;;
7477;SDS011;3780;42.424;25.636;2022-12-04T16:50:10;15.95;;;6.18;;
7477;SDS011;3780;42.424;25.636;2022-12-04T16:52:35;14.82;;;5.95;;
7477;SDS011;3780;42.424;25.636;2022-12-04T16:55:00;17.98;;;7.53;;
7477;SDS011;3780;42.424;25.636;2022-12-04T16:57:26;25.30;;;11.88;;
7477;SDS011;3780;42.424;25.636;2022-12-04T16:59:51;17.92;;;9.68;;
7477;SDS011;3780;42.424;25.636;2022-12-04T17:02:18;57.70;;;27.58;;
7477;SDS011;3780;42.424;25.636;2022-12-04T17:04:46;57.70;;;35.53;;
7477;SDS011;3780;42.424;25.636;2022-12-04T17:07:11;45.97;;;29.67;;
7477;SDS011;3780;42.424;25.636;2022-12-04T17:09:36;56.42;;;33.67;;